Terminal Aerodrome Forecast
Issued by NWS

Home | Current Version | Previous Version | Text Only | Print | Product List | Glossary On
Versions: 1 2 3 4 5 6 7 8 9 10 11 12 13 14 15 16 17 18 19 20 21 22 23 24 25 26 27 28 29 30 31
000
FTAK31 PAFA 231059 AAA
TAFAUN
TAF AMD
PAUN 231059Z 2311/2406 08004KT P6SM SCT028 BKN035
     FM231400 15008KT P6SM BKN025
     FM231600 16012KT P6SM VCSH SCT020 BKN040 OVC060
     FM232100 16012KT 2SM -SN BR BKN020 OVC040=

USA.gov is the U.S. government's official web portal to all federal, state and local government web resources and services.